sensor_id;sensor_type;location;lat;lon;timestamp;noise_LAeq;noise_LA_min;noise_LA_max;noise_LA01;noise_LA95
70454;Laerm;57915;47.174;14.680;2023-06-14T00:00:44;41.61;40.41;43.34;;
70454;Laerm;57915;47.174;14.680;2023-06-14T00:01:45;41.89;40.67;43.16;;
70454;Laerm;57915;47.174;14.680;2023-06-14T00:02:47;42.18;40.85;45.20;;
70454;Laerm;57915;47.174;14.680;2023-06-14T00:03:47;43.29;40.95;49.16;;
70454;Laerm;57915;47.174;14.680;2023-06-14T00:04:50;41.56;40.31;43.25;;
70454;Laerm;57915;47.174;14.680;2023-06-14T00:05:52;41.31;40.13;43.56;;
70454;Laerm;57915;47.174;14.680;2023-06-14T00:06:54;41.30;40.13;42.63;;
70454;Laerm;57915;47.174;14.680;2023-06-14T00:07:56;41.67;40.18;49.11;;
70454;Laerm;57915;47.174;14.680;2023-06-14T00:09:00;44.11;41.36;47.49;;
70454;Laerm;57915;47.174;14.680;2023-06-14T00:10:01;41.86;40.32;44.34;;
70454;Laerm;57915;47.174;14.680;2023-06-14T00:11:03;42.19;40.40;47.81;;
70454;Laerm;57915;47.174;14.680;2023-06-14T00:12:03;41.35;40.18;50.64;;
70454;Laerm;57915;47.174;14.680;2023-06-14T00:13:09;41.13;40.24;47.14;;
70454;Laerm;57915;47.174;14.680;2023-06-14T00:14:09;41.06;40.12;43.12;;
70454;Laerm;57915;47.174;14.680;2023-06-14T00:15:11;41.03;40.02;43.04;;
70454;Laerm;57915;47.174;14.680;2023-06-14T00:16:11;41.07;40.04;47.92;;
70454;Laerm;57915;47.174;14.680;2023-06-14T00:17:13;40.99;40.11;42.80;;
70454;Laerm;57915;47.174;14.680;2023-06-14T00:18:16;40.95;40.09;42.58;;
70454;Laerm;57915;47.174;14.680;2023-06-14T00:19:18;41.04;40.04;45.10;;
70454;Laerm;57915;47.174;14.680;2023-06-14T00:20:21;41.74;39.90;54.49;;
70454;Laerm;57915;47.174;14.680;2023-06-14T00:21:22;40.83;39.80;49.41;;
70454;Laerm;57915;47.174;14.680;2023-06-14T00:22:23;40.89;39.79;42.74;;
70454;Laerm;57915;47.174;14.680;2023-06-14T00:23:25;40.92;39.68;44.34;;
70454;Laerm;57915;47.174;14.680;2023-06-14T00:24:25;40.88;39.73;46.53;;
70454;Laerm;57915;47.174;14.680;2023-06-14T00:25:27;40.69;39.65;44.77;;
70454;Laerm;57915;47.174;14.680;2023-06-14T00:26:28;40.66;39.51;42.17;;
70454;Laerm;57915;47.174;14.680;2023-06-14T00:27:29;40.73;39.68;44.60;;
70454;Laerm;57915;47.174;14.680;2023-06-14T00:28:30;40.68;39.68;42.98;;
70454;Laerm;57915;47.174;14.680;2023-06-14T00:29:31;40.80;39.83;42.21;;
70454;Laerm;57915;47.174;14.680;2023-06-14T00:30:31;41.10;40.04;42.68;;
70454;Laerm;57915;47.174;14.680;2023-06-14T00:31:33;41.39;40.20;43.06;;
70454;Laerm;57915;47.174;14.680;2023-06-14T00:32:33;41.70;40.28;46.99;;
70454;Laerm;57915;47.174;14.680;2023-06-14T00:33:35;41.61;40.38;43.24;;
70454;Laerm;57915;47.174;14.680;2023-06-14T00:34:35;41.58;40.21;44.20;;
70454;Laerm;57915;47.174;14.680;2023-06-14T00:35:38;41.48;40.45;43.29;;
70454;Laerm;57915;47.174;14.680;2023-06-14T00:36:39;41.54;40.20;44.72;;
70454;Laerm;57915;47.174;14.680;2023-06-14T00:37:40;41.65;40.61;44.11;;
70454;Laerm;57915;47.174;14.680;2023-06-14T00:38:41;42.53;40.99;45.60;;
70454;Laerm;57915;47.174;14.680;2023-06-14T00:39:42;43.19;41.03;47.03;;
70454;Laerm;57915;47.174;14.680;2023-06-14T00:40:43;41.97;40.77;43.92;;
70454;Laerm;57915;47.174;14.680;2023-06-14T00:41:44;41.81;40.77;43.55;;
70454;Laerm;57915;47.174;14.680;2023-06-14T00:42:45;41.71;40.55;44.57;;
70454;Laerm;57915;47.174;14.680;2023-06-14T00:43:46;41.65;40.51;42.90;;
70454;Laerm;57915;47.174;14.680;2023-06-14T00:44:47;41.46;40.27;42.66;;
70454;Laerm;57915;47.174;14.680;2023-06-14T00:45:48;41.50;40.54;43.05;;
70454;Laerm;57915;47.174;14.680;2023-06-14T00:46:49;41.58;40.39;44.04;;
70454;Laerm;57915;47.174;14.680;2023-06-14T00:47:51;44.20;40.67;59.69;;
70454;Laerm;57915;47.174;14.680;2023-06-14T00:48:55;55.28;40.68;69.26;;
70454;Laerm;57915;47.174;14.680;2023-06-14T00:49:57;41.56;40.28;43.92;;
70454;Laerm;57915;47.174;14.680;2023-06-14T00:51:00;59.15;40.18;71.97;;
70454;Laerm;57915;47.174;14.680;2023-06-14T00:52:04;41.35;40.06;43.81;;
70454;Laerm;57915;47.174;14.680;2023-06-14T00:53:04;41.59;40.04;44.33;;
70454;Laerm;57915;47.174;14.680;2023-06-14T00:54:06;42.03;40.49;46.60;;
70454;Laerm;57915;47.174;14.680;2023-06-14T00:55:07;41.40;40.01;51.48;;
70454;Laerm;57915;47.174;14.680;2023-06-14T00:56:08;41.31;40.31;43.90;;
70454;Laerm;57915;47.174;14.680;2023-06-14T00:57:10;41.37;40.25;44.25;;
70454;Laerm;57915;47.174;14.680;2023-06-14T00:58:11;41.23;40.07;43.22;;
70454;Laerm;57915;47.174;14.680;2023-06-14T00:59:12;41.38;40.14;44.34;;
70454;Laerm;57915;47.174;14.680;2023-06-14T01:00:15;42.04;40.42;44.59;;
70454;Laerm;57915;47.174;14.680;2023-06-14T01:01:16;41.19;40.01;44.20;;
70454;Laerm;57915;47.174;14.680;2023-06-14T01:02:18;41.19;40.02;45.72;;
70454;Laerm;57915;47.174;14.680;2023-06-14T01:03:19;41.01;39.95;43.14;;
70454;Laerm;57915;47.174;14.680;2023-06-14T01:04:22;55.17;40.18;68.00;;
70454;Laerm;57915;47.174;14.680;2023-06-14T01:05:23;41.30;40.17;45.64;;
70454;Laerm;57915;47.174;14.680;2023-06-14T01:06:30;41.39;40.15;43.61;;
70454;Laerm;57915;47.174;14.680;2023-06-14T01:07:33;41.30;40.34;46.60;;
70454;Laerm;57915;47.174;14.680;2023-06-14T01:08:41;41.53;40.15;51.55;;
70454;Laerm;57915;47.174;14.680;2023-06-14T01:09:47;52.58;40.54;64.72;;
70454;Laerm;57915;47.174;14.680;2023-06-14T01:10:52;43.58;40.32;53.54;;
70454;Laerm;57915;47.174;14.680;2023-06-14T01:11:54;41.36;40.38;43.08;;
70454;Laerm;57915;47.174;14.680;2023-06-14T01:12:58;41.28;40.09;44.34;;
70454;Laerm;57915;47.174;14.680;2023-06-14T01:14:00;41.26;40.24;43.15;;
70454;Laerm;57915;47.174;14.680;2023-06-14T01:15:03;41.24;40.10;43.90;;
70454;Laerm;57915;47.174;14.680;2023-06-14T01:16:04;41.11;40.07;43.79;;
70454;Laerm;57915;47.174;14.680;2023-06-14T01:17:06;56.40;40.16;68.66;;
70454;Laerm;57915;47.174;14.680;2023-06-14T01:18:08;40.99;40.06;43.89;;
70454;Laerm;57915;47.174;14.680;2023-06-14T01:19:17;40.90;39.85;42.89;;
70454;Laerm;57915;47.174;14.680;2023-06-14T01:20:18;40.84;39.90;42.52;;
70454;Laerm;57915;47.174;14.680;2023-06-14T01:21:20;40.89;39.82;43.33;;
70454;Laerm;57915;47.174;14.680;2023-06-14T01:22:23;52.56;39.90;66.03;;
70454;Laerm;57915;47.174;14.680;2023-06-14T01:23:26;40.89;39.90;43.29;;
70454;Laerm;57915;47.174;14.680;2023-06-14T01:24:32;40.89;39.93;43.49;;
70454;Laerm;57915;47.174;14.680;2023-06-14T01:25:34;40.83;39.81;47.15;;
70454;Laerm;57915;47.174;14.680;2023-06-14T01:26:37;40.94;39.85;43.71;;
70454;Laerm;57915;47.174;14.680;2023-06-14T01:27:41;41.06;40.01;44.29;;
70454;Laerm;57915;47.174;14.680;2023-06-14T01:28:41;40.95;40.00;43.62;;
70454;Laerm;57915;47.174;14.680;2023-06-14T01:29:48;53.94;40.10;67.65;;
70454;Laerm;57915;47.174;14.680;2023-06-14T01:30:49;57.61;40.12;71.02;;
70454;Laerm;57915;47.174;14.680;2023-06-14T01:31:52;41.19;40.29;43.96;;
70454;Laerm;57915;47.174;14.680;2023-06-14T01:32:53;41.31;40.23;44.61;;
70454;Laerm;57915;47.174;14.680;2023-06-14T01:33:55;41.32;40.28;43.04;;
70454;Laerm;57915;47.174;14.680;2023-06-14T01:34:57;41.55;40.60;43.04;;
70454;Laerm;57915;47.174;14.680;2023-06-14T01:35:57;41.57;40.54;43.52;;
70454;Laerm;57915;47.174;14.680;2023-06-14T01:36:59;41.64;40.37;42.72;;
70454;Laerm;57915;47.174;14.680;2023-06-14T01:38:01;41.84;40.77;43.70;;
70454;Laerm;57915;47.174;14.680;2023-06-14T01:39:05;42.51;40.75;50.48;;
70454;Laerm;57915;47.174;14.680;2023-06-14T01:40:06;42.44;40.93;51.52;;
70454;Laerm;57915;47.174;14.680;2023-06-14T01:41:10;42.16;40.95;44.68;;
70454;Laerm;57915;47.174;14.680;2023-06-14T01:42:11;42.09;41.00;44.89;;
70454;Laerm;57915;47.174;14.680;2023-06-14T01:43:14;42.11;40.76;44.93;;
70454;Laerm;57915;47.174;14.680;2023-06-14T01:44:15;42.09;40.84;45.64;;
70454;Laerm;57915;47.174;14.680;2023-06-14T01:45:18;42.47;40.93;48.63;;
70454;Laerm;57915;47.174;14.680;2023-06-14T01:46:18;55.48;40.59;67.74;;
70454;Laerm;57915;47.174;14.680;2023-06-14T01:47:20;42.86;40.73;51.24;;
70454;Laerm;57915;47.174;14.680;2023-06-14T01:48:21;42.47;40.77;50.97;;
70454;Laerm;57915;47.174;14.680;2023-06-14T01:49:22;42.50;40.65;50.75;;
70454;Laerm;57915;47.174;14.680;2023-06-14T01:50:23;43.40;40.50;54.75;;
70454;Laerm;57915;47.174;14.680;2023-06-14T01:51:24;42.95;40.49;53.71;;
70454;Laerm;57915;47.174;14.680;2023-06-14T01:52:25;42.48;40.44;51.57;;
70454;Laerm;57915;47.174;14.680;2023-06-14T01:53:26;42.49;40.46;51.25;;
70454;Laerm;57915;47.174;14.680;2023-06-14T01:54:28;42.30;40.42;49.15;;
70454;Laerm;57915;47.174;14.680;2023-06-14T01:55:31;42.10;40.48;50.02;;
70454;Laerm;57915;47.174;14.680;2023-06-14T01:56:37;42.95;40.72;51.91;;
70454;Laerm;57915;47.174;14.680;2023-06-14T01:57:38;42.66;40.65;51.45;;
70454;Laerm;57915;47.174;14.680;2023-06-14T01:58:39;42.88;40.81;52.38;;
70454;Laerm;57915;47.174;14.680;2023-06-14T01:59:40;43.24;40.93;53.05;;
70454;Laerm;57915;47.174;14.680;2023-06-14T02:00:41;44.33;41.14;54.17;;
70454;Laerm;57915;47.174;14.680;2023-06-14T02:01:43;59.06;42.05;70.85;;
70454;Laerm;57915;47.174;14.680;2023-06-14T02:02:43;52.77;40.90;67.22;;
70454;Laerm;57915;47.174;14.680;2023-06-14T02:03:45;58.68;41.09;71.72;;
70454;Laerm;57915;47.174;14.680;2023-06-14T02:04:46;42.60;40.78;50.70;;
70454;Laerm;57915;47.174;14.680;2023-06-14T02:05:48;43.04;40.98;52.61;;
70454;Laerm;57915;47.174;14.680;2023-06-14T02:06:49;57.39;40.41;68.87;;
70454;Laerm;57915;47.174;14.680;2023-06-14T02:07:50;46.24;40.36;59.72;;
70454;Laerm;57915;47.174;14.680;2023-06-14T02:08:51;42.48;40.37;50.94;;
70454;Laerm;57915;47.174;14.680;2023-06-14T02:09:53;42.27;40.28;52.71;;
70454;Laerm;57915;47.174;14.680;2023-06-14T02:10:54;54.91;40.28;67.83;;
70454;Laerm;57915;47.174;14.680;2023-06-14T02:11:55;57.55;40.31;69.13;;
70454;Laerm;57915;47.174;14.680;2023-06-14T02:12:56;45.92;40.09;59.62;;
70454;Laerm;57915;47.174;14.680;2023-06-14T02:13:57;46.67;40.18;62.59;;
70454;Laerm;57915;47.174;14.680;2023-06-14T02:15:00;48.54;39.95;66.20;;
70454;Laerm;57915;47.174;14.680;2023-06-14T02:16:01;52.78;39.89;67.14;;
70454;Laerm;57915;47.174;14.680;2023-06-14T02:17:02;52.92;40.54;69.22;;
70454;Laerm;57915;47.174;14.680;2023-06-14T02:18:03;51.57;40.62;68.78;;
70454;Laerm;57915;47.174;14.680;2023-06-14T02:19:04;56.77;40.75;73.69;;
70454;Laerm;57915;47.174;14.680;2023-06-14T02:20:07;53.23;40.45;68.72;;
70454;Laerm;57915;47.174;14.680;2023-06-14T02:21:08;51.45;40.97;63.81;;
70454;Laerm;57915;47.174;14.680;2023-06-14T02:22:09;57.66;41.22;70.63;;
70454;Laerm;57915;47.174;14.680;2023-06-14T02:23:10;53.52;41.57;67.22;;
70454;Laerm;57915;47.174;14.680;2023-06-14T02:24:12;53.57;41.95;66.65;;
70454;Laerm;57915;47.174;14.680;2023-06-14T02:25:13;54.17;41.50;68.08;;
70454;Laerm;57915;47.174;14.680;2023-06-14T02:26:15;54.13;42.01;66.70;;
70454;Laerm;57915;47.174;14.680;2023-06-14T02:27:15;55.31;42.75;69.13;;
70454;Laerm;57915;47.174;14.680;2023-06-14T02:28:17;54.88;42.89;68.17;;
70454;Laerm;57915;47.174;14.680;2023-06-14T02:29:17;53.43;42.41;68.06;;
70454;Laerm;57915;47.174;14.680;2023-06-14T02:30:19;56.60;42.89;69.83;;
70454;Laerm;57915;47.174;14.680;2023-06-14T02:31:20;58.69;43.06;69.99;;
70454;Laerm;57915;47.174;14.680;2023-06-14T02:32:22;57.91;43.72;69.42;;
70454;Laerm;57915;47.174;14.680;2023-06-14T02:33:23;57.08;43.28;68.59;;
70454;Laerm;57915;47.174;14.680;2023-06-14T02:34:25;55.21;42.65;69.74;;
70454;Laerm;57915;47.174;14.680;2023-06-14T02:35:27;58.25;42.91;69.99;;
70454;Laerm;57915;47.174;14.680;2023-06-14T02:36:28;62.30;44.33;70.45;;
70454;Laerm;57915;47.174;14.680;2023-06-14T02:37:30;62.49;44.43;69.76;;
70454;Laerm;57915;47.174;14.680;2023-06-14T02:38:31;57.86;43.74;68.20;;
70454;Laerm;57915;47.174;14.680;2023-06-14T02:39:32;57.19;43.40;69.68;;
70454;Laerm;57915;47.174;14.680;2023-06-14T02:40:35;55.59;43.49;66.63;;
70454;Laerm;57915;47.174;14.680;2023-06-14T02:41:35;60.31;43.80;71.92;;
70454;Laerm;57915;47.174;14.680;2023-06-14T02:42:36;60.82;42.80;73.44;;
70454;Laerm;57915;47.174;14.680;2023-06-14T02:43:37;52.44;43.02;66.42;;
70454;Laerm;57915;47.174;14.680;2023-06-14T02:44:39;52.06;43.23;67.08;;
70454;Laerm;57915;47.174;14.680;2023-06-14T02:45:40;48.43;42.53;65.67;;
70454;Laerm;57915;47.174;14.680;2023-06-14T02:46:41;60.13;42.97;71.78;;
70454;Laerm;57915;47.174;14.680;2023-06-14T02:47:43;56.47;42.98;67.18;;
70454;Laerm;57915;47.174;14.680;2023-06-14T02:48:45;50.25;43.58;61.99;;
70454;Laerm;57915;47.174;14.680;2023-06-14T02:49:46;55.98;43.76;67.97;;
70454;Laerm;57915;47.174;14.680;2023-06-14T02:50:47;50.50;43.13;59.43;;
70454;Laerm;57915;47.174;14.680;2023-06-14T02:51:48;50.01;43.24;60.44;;
70454;Laerm;57915;47.174;14.680;2023-06-14T02:52:49;49.98;43.77;60.95;;
70454;Laerm;57915;47.174;14.680;2023-06-14T02:53:50;54.98;43.76;67.66;;
70454;Laerm;57915;47.174;14.680;2023-06-14T02:54:51;52.26;43.46;65.19;;
70454;Laerm;57915;47.174;14.680;2023-06-14T02:55:53;54.23;43.33;64.85;;
70454;Laerm;57915;47.174;14.680;2023-06-14T02:56:55;53.01;43.37;64.60;;
70454;Laerm;57915;47.174;14.680;2023-06-14T02:57:56;52.78;43.52;64.31;;
70454;Laerm;57915;47.174;14.680;2023-06-14T02:58:57;53.15;43.35;65.06;;
70454;Laerm;57915;47.174;14.680;2023-06-14T02:59:58;57.68;43.05;69.71;;
70454;Laerm;57915;47.174;14.680;2023-06-14T03:00:59;58.71;43.61;69.56;;
70454;Laerm;57915;47.174;14.680;2023-06-14T03:02:03;57.08;43.38;66.09;;
70454;Laerm;57915;47.174;14.680;2023-06-14T03:03:05;58.31;43.30;71.22;;
70454;Laerm;57915;47.174;14.680;2023-06-14T03:04:09;60.07;44.92;70.48;;
70454;Laerm;57915;47.174;14.680;2023-06-14T03:05:11;61.49;43.86;74.03;;
70454;Laerm;57915;47.174;14.680;2023-06-14T03:06:12;54.90;43.41;66.95;;
70454;Laerm;57915;47.174;14.680;2023-06-14T03:07:16;53.79;43.46;68.07;;
70454;Laerm;57915;47.174;14.680;2023-06-14T03:08:19;56.78;42.91;69.14;;
70454;Laerm;57915;47.174;14.680;2023-06-14T03:09:21;56.09;42.70;69.31;;
70454;Laerm;57915;47.174;14.680;2023-06-14T03:10:21;56.32;44.21;69.39;;
70454;Laerm;57915;47.174;14.680;2023-06-14T03:11:24;60.88;46.43;71.40;;
70454;Laerm;57915;47.174;14.680;2023-06-14T03:12:25;61.83;44.72;75.38;;
70454;Laerm;57915;47.174;14.680;2023-06-14T03:13:26;57.48;43.98;69.84;;
70454;Laerm;57915;47.174;14.680;2023-06-14T03:14:27;51.65;43.65;65.77;;
70454;Laerm;57915;47.174;14.680;2023-06-14T03:15:29;60.10;43.64;72.91;;
70454;Laerm;57915;47.174;14.680;2023-06-14T03:16:31;48.96;43.19;59.48;;
70454;Laerm;57915;47.174;14.680;2023-06-14T03:17:32;54.68;43.99;66.12;;
70454;Laerm;57915;47.174;14.680;2023-06-14T03:18:33;54.64;43.91;66.44;;
70454;Laerm;57915;47.174;14.680;2023-06-14T03:19:36;52.78;42.92;65.75;;
70454;Laerm;57915;47.174;14.680;2023-06-14T03:20:36;56.43;42.73;69.84;;
70454;Laerm;57915;47.174;14.680;2023-06-14T03:21:38;56.96;43.81;69.55;;
70454;Laerm;57915;47.174;14.680;2023-06-14T03:22:43;59.77;43.77;69.86;;
70454;Laerm;57915;47.174;14.680;2023-06-14T03:23:46;61.17;44.38;70.86;;
70454;Laerm;57915;47.174;14.680;2023-06-14T03:24:46;58.43;44.97;67.12;;
70454;Laerm;57915;47.174;14.680;2023-06-14T03:25:48;59.04;44.29;70.76;;
70454;Laerm;57915;47.174;14.680;2023-06-14T03:26:50;57.82;43.34;68.40;;
70454;Laerm;57915;47.174;14.680;2023-06-14T03:27:51;57.23;43.42;69.56;;
70454;Laerm;57915;47.174;14.680;2023-06-14T03:28:52;55.17;43.20;66.41;;
70454;Laerm;57915;47.174;14.680;2023-06-14T03:29:53;63.20;43.46;72.51;;
70454;Laerm;57915;47.174;14.680;2023-06-14T03:30:54;56.04;42.91;68.92;;
70454;Laerm;57915;47.174;14.680;2023-06-14T03:31:56;59.45;43.54;71.04;;
70454;Laerm;57915;47.174;14.680;2023-06-14T03:32:57;61.37;43.35;70.19;;
70454;Laerm;57915;47.174;14.680;2023-06-14T03:34:01;60.97;43.13;71.71;;
70454;Laerm;57915;47.174;14.680;2023-06-14T03:35:01;64.11;50.49;73.60;;
70454;Laerm;57915;47.174;14.680;2023-06-14T03:36:03;63.42;43.80;74.44;;
70454;Laerm;57915;47.174;14.680;2023-06-14T03:37:03;58.14;43.41;69.66;;
70454;Laerm;57915;47.174;14.680;2023-06-14T03:38:05;62.70;43.82;72.94;;
70454;Laerm;57915;47.174;14.680;2023-06-14T03:39:05;61.31;44.42;74.47;;
70454;Laerm;57915;47.174;14.680;2023-06-14T03:40:07;58.80;44.23;69.02;;
70454;Laerm;57915;47.174;14.680;2023-06-14T03:41:08;59.52;43.85;68.79;;
70454;Laerm;57915;47.174;14.680;2023-06-14T03:42:11;60.74;43.03;70.69;;
70454;Laerm;57915;47.174;14.680;2023-06-14T03:43:12;59.98;42.61;70.71;;
70454;Laerm;57915;47.174;14.680;2023-06-14T03:44:14;55.70;42.58;68.64;;
70454;Laerm;57915;47.174;14.680;2023-06-14T03:45:14;64.22;43.40;74.03;;
70454;Laerm;57915;47.174;14.680;2023-06-14T03:46:16;58.20;42.88;72.05;;
70454;Laerm;57915;47.174;14.680;2023-06-14T03:47:16;59.65;42.53;70.90;;
70454;Laerm;57915;47.174;14.680;2023-06-14T03:48:18;56.23;42.89;68.75;;
70454;Laerm;57915;47.174;14.680;2023-06-14T03:49:18;54.40;42.41;66.83;;
70454;Laerm;57915;47.174;14.680;2023-06-14T03:50:20;48.69;41.89;60.83;;
70454;Laerm;57915;47.174;14.680;2023-06-14T03:51:20;52.85;41.93;65.92;;
70454;Laerm;57915;47.174;14.680;2023-06-14T03:52:22;61.90;42.52;70.13;;
70454;Laerm;57915;47.174;14.680;2023-06-14T03:53:25;57.29;41.80;69.43;;
70454;Laerm;57915;47.174;14.680;2023-06-14T03:54:27;60.15;41.93;72.97;;
70454;Laerm;57915;47.174;14.680;2023-06-14T03:55:32;56.06;41.97;67.94;;
70454;Laerm;57915;47.174;14.680;2023-06-14T03:56:33;58.00;42.22;69.93;;
70454;Laerm;57915;47.174;14.680;2023-06-14T03:57:36;55.05;42.05;67.38;;
70454;Laerm;57915;47.174;14.680;2023-06-14T03:58:36;57.43;41.87;71.15;;
70454;Laerm;57915;47.174;14.680;2023-06-14T03:59:38;61.53;42.31;71.74;;
70454;Laerm;57915;47.174;14.680;2023-06-14T04:00:38;49.70;41.85;61.68;;
70454;Laerm;57915;47.174;14.680;2023-06-14T04:01:40;61.17;42.02;72.21;;
70454;Laerm;57915;47.174;14.680;2023-06-14T04:02:45;60.74;43.26;69.60;;
70454;Laerm;57915;47.174;14.680;2023-06-14T04:03:47;59.11;42.43;70.38;;
70454;Laerm;57915;47.174;14.680;2023-06-14T04:04:47;61.02;42.96;70.21;;
70454;Laerm;57915;47.174;14.680;2023-06-14T04:05:49;48.57;41.70;65.11;;
70454;Laerm;57915;47.174;14.680;2023-06-14T04:06:51;55.93;42.27;68.77;;
70454;Laerm;57915;47.174;14.680;2023-06-14T04:07:51;49.29;42.14;59.41;;
70454;Laerm;57915;47.174;14.680;2023-06-14T04:08:55;57.51;43.49;67.86;;
70454;Laerm;57915;47.174;14.680;2023-06-14T04:09:56;60.39;43.22;69.93;;
70454;Laerm;57915;47.174;14.680;2023-06-14T04:10:57;57.02;43.05;69.61;;
70454;Laerm;57915;47.174;14.680;2023-06-14T04:11:58;57.03;41.71;67.62;;
70454;Laerm;57915;47.174;14.680;2023-06-14T04:13:00;58.73;42.11;69.88;;
70454;Laerm;57915;47.174;14.680;2023-06-14T04:14:01;57.03;42.25;68.82;;
70454;Laerm;57915;47.174;14.680;2023-06-14T04:15:03;56.95;42.39;69.73;;
70454;Laerm;57915;47.174;14.680;2023-06-14T04:16:05;63.02;42.82;71.88;;
70454;Laerm;57915;47.174;14.680;2023-06-14T04:17:07;49.94;42.70;58.34;;
70454;Laerm;57915;47.174;14.680;2023-06-14T04:18:07;62.44;47.25;73.86;;
70454;Laerm;57915;47.174;14.680;2023-06-14T04:19:09;61.09;42.60;69.20;;
70454;Laerm;57915;47.174;14.680;2023-06-14T04:20:09;61.47;43.44;70.97;;
70454;Laerm;57915;47.174;14.680;2023-06-14T04:21:11;57.03;41.60;71.22;;
70454;Laerm;57915;47.174;14.680;2023-06-14T04:22:11;58.58;41.83;68.75;;
70454;Laerm;57915;47.174;14.680;2023-06-14T04:23:13;58.28;41.28;69.02;;
70454;Laerm;57915;47.174;14.680;2023-06-14T04:24:14;55.36;42.05;67.26;;
70454;Laerm;57915;47.174;14.680;2023-06-14T04:25:15;61.11;47.44;70.09;;
70454;Laerm;57915;47.174;14.680;2023-06-14T04:26:16;59.62;42.73;67.97;;
70454;Laerm;57915;47.174;14.680;2023-06-14T04:27:19;56.38;41.77;68.10;;
70454;Laerm;57915;47.174;14.680;2023-06-14T04:28:23;56.73;41.18;72.53;;
70454;Laerm;57915;47.174;14.680;2023-06-14T04:29:27;62.31;42.43;74.32;;
70454;Laerm;57915;47.174;14.680;2023-06-14T04:30:29;60.77;45.50;69.93;;
70454;Laerm;57915;47.174;14.680;2023-06-14T04:31:31;52.22;41.38;64.98;;
70454;Laerm;57915;47.174;14.680;2023-06-14T04:32:33;59.98;41.62;71.06;;
70454;Laerm;57915;47.174;14.680;2023-06-14T04:33:39;61.93;40.86;72.38;;
70454;Laerm;57915;47.174;14.680;2023-06-14T04:34:43;60.87;40.69;75.28;;
70454;Laerm;57915;47.174;14.680;2023-06-14T04:35:44;50.04;40.69;65.62;;
70454;Laerm;57915;47.174;14.680;2023-06-14T04:36:47;59.04;41.88;69.41;;
70454;Laerm;57915;47.174;14.680;2023-06-14T04:37:53;60.16;43.91;68.95;;
70454;Laerm;57915;47.174;14.680;2023-06-14T04:38:53;55.78;40.60;69.78;;
70454;Laerm;57915;47.174;14.680;2023-06-14T04:39:55;59.41;41.21;68.80;;
70454;Laerm;57915;47.174;14.680;2023-06-14T04:40:56;57.81;42.57;67.88;;
70454;Laerm;57915;47.174;14.680;2023-06-14T04:42:01;62.03;49.21;71.37;;
70454;Laerm;57915;47.174;14.680;2023-06-14T04:43:03;62.41;42.98;73.17;;
70454;Laerm;57915;47.174;14.680;2023-06-14T04:44:08;60.81;43.79;69.24;;
70454;Laerm;57915;47.174;14.680;2023-06-14T04:45:10;64.06;43.17;73.23;;
70454;Laerm;57915;47.174;14.680;2023-06-14T04:46:11;60.71;44.92;71.20;;
70454;Laerm;57915;47.174;14.680;2023-06-14T04:47:14;61.78;42.15;70.85;;
70454;Laerm;57915;47.174;14.680;2023-06-14T04:48:16;56.33;41.64;69.13;;
70454;Laerm;57915;47.174;14.680;2023-06-14T04:49:19;59.34;42.60;68.98;;
70454;Laerm;57915;47.174;14.680;2023-06-14T04:50:23;62.32;43.90;72.84;;
70454;Laerm;57915;47.174;14.680;2023-06-14T04:51:24;62.81;48.54;72.71;;
70454;Laerm;57915;47.174;14.680;2023-06-14T04:52:29;58.26;44.24;68.05;;
70454;Laerm;57915;47.174;14.680;2023-06-14T04:53:30;58.80;43.18;71.41;;
70454;Laerm;57915;47.174;14.680;2023-06-14T04:54:32;62.99;43.27;73.42;;
70454;Laerm;57915;47.174;14.680;2023-06-14T04:55:33;56.37;41.19;67.64;;
70454;Laerm;57915;47.174;14.680;2023-06-14T04:56:36;60.15;42.29;70.72;;
70454;Laerm;57915;47.174;14.680;2023-06-14T04:57:37;60.40;42.67;70.26;;
70454;Laerm;57915;47.174;14.680;2023-06-14T04:58:40;62.86;48.75;71.93;;
70454;Laerm;57915;47.174;14.680;2023-06-14T04:59:42;62.38;44.44;78.44;;
70454;Laerm;57915;47.174;14.680;2023-06-14T05:00:44;56.85;42.40;68.02;;
70454;Laerm;57915;47.174;14.680;2023-06-14T05:01:44;56.96;43.51;67.32;;
70454;Laerm;57915;47.174;14.680;2023-06-14T05:02:47;63.68;47.43;72.85;;
70454;Laerm;57915;47.174;14.680;2023-06-14T05:03:49;63.17;45.09;70.62;;
70454;Laerm;57915;47.174;14.680;2023-06-14T05:04:50;62.02;45.19;72.10;;
70454;Laerm;57915;47.174;14.680;2023-06-14T05:05:51;57.51;43.29;71.06;;
70454;Laerm;57915;47.174;14.680;2023-06-14T05:06:53;65.40;49.56;79.12;;
70454;Laerm;57915;47.174;14.680;2023-06-14T05:07:54;60.98;42.53;68.84;;
70454;Laerm;57915;47.174;14.680;2023-06-14T05:08:56;60.57;44.92;70.68;;
70454;Laerm;57915;47.174;14.680;2023-06-14T05:09:56;58.64;43.19;70.04;;
70454;Laerm;57915;47.174;14.680;2023-06-14T05:10:57;61.91;43.59;71.45;;
70454;Laerm;57915;47.174;14.680;2023-06-14T05:11:58;57.33;43.72;69.13;;
70454;Laerm;57915;47.174;14.680;2023-06-14T05:13:00;59.18;43.85;68.10;;
70454;Laerm;57915;47.174;14.680;2023-06-14T05:14:00;61.96;44.73;73.45;;
70454;Laerm;57915;47.174;14.680;2023-06-14T05:15:04;61.42;45.72;70.56;;
70454;Laerm;57915;47.174;14.680;2023-06-14T05:16:04;61.70;41.82;73.03;;
70454;Laerm;57915;47.174;14.680;2023-06-14T05:17:06;62.00;46.85;69.50;;
70454;Laerm;57915;47.174;14.680;2023-06-14T05:18:07;64.15;54.38;70.62;;
70454;Laerm;57915;47.174;14.680;2023-06-14T05:19:09;61.25;45.41;70.24;;
70454;Laerm;57915;47.174;14.680;2023-06-14T05:20:10;60.79;45.49;68.83;;
70454;Laerm;57915;47.174;14.680;2023-06-14T05:21:12;62.62;53.33;70.05;;
70454;Laerm;57915;47.174;14.680;2023-06-14T05:22:13;60.96;46.74;70.49;;
70454;Laerm;57915;47.174;14.680;2023-06-14T05:23:14;63.10;48.14;74.57;;
70454;Laerm;57915;47.174;14.680;2023-06-14T05:24:15;63.16;44.70;74.16;;
70454;Laerm;57915;47.174;14.680;2023-06-14T05:25:17;61.98;46.14;69.50;;
70454;Laerm;57915;47.174;14.680;2023-06-14T05:26:17;61.91;46.95;71.66;;
70454;Laerm;57915;47.174;14.680;2023-06-14T05:27:19;66.56;48.24;77.96;;
70454;Laerm;57915;47.174;14.680;2023-06-14T05:28:19;63.56;44.87;75.28;;
70454;Laerm;57915;47.174;14.680;2023-06-14T05:29:21;60.40;49.98;66.95;;
70454;Laerm;57915;47.174;14.680;2023-06-14T05:30:24;61.03;47.74;68.37;;
70454;Laerm;57915;47.174;14.680;2023-06-14T05:31:26;64.59;55.95;78.21;;
70454;Laerm;57915;47.174;14.680;2023-06-14T05:32:27;63.12;50.27;69.30;;
70454;Laerm;57915;47.174;14.680;2023-06-14T05:33:28;60.92;50.75;67.65;;
70454;Laerm;57915;47.174;14.680;2023-06-14T05:34:28;65.16;57.83;71.57;;
70454;Laerm;57915;47.174;14.680;2023-06-14T05:35:30;64.92;42.32;73.31;;
70454;Laerm;57915;47.174;14.680;2023-06-14T05:36:30;63.11;46.73;76.87;;
70454;Laerm;57915;47.174;14.680;2023-06-14T05:37:32;62.07;44.71;70.15;;
70454;Laerm;57915;47.174;14.680;2023-06-14T05:38:32;63.00;47.68;73.62;;
70454;Laerm;57915;47.174;14.680;2023-06-14T05:39:34;61.44;42.11;70.06;;
70454;Laerm;57915;47.174;14.680;2023-06-14T05:40:35;64.02;48.03;71.81;;